Air Navigation Services of Czech Republic
Airport: LKTB Updated:  07.02.2023 15:00:32  UTC
 METAR LKTB 07.02. 15:00 ...
METAR LKTB 071500Z 08009KT 9999 FEW024 M01/M06 Q1039 NOSIG=
 TAF LKTB 07.02. 11:00 ...
TAF LKTB 071100Z 0712/0812 05008KT 9999 FEW025=